sensor_id;sensor_type;location;lat;lon;timestamp;P1;durP1;ratioP1;P2;durP2;ratioP2
56718;SDS011;42597;40.636;0.278;2023-08-20T00:00:13;16.58;;;14.88;;
56718;SDS011;42597;40.636;0.278;2023-08-20T00:02:43;19.55;;;17.25;;
56718;SDS011;42597;40.636;0.278;2023-08-20T00:05:10;17.85;;;14.43;;
56718;SDS011;42597;40.636;0.278;2023-08-20T00:07:36;17.85;;;14.80;;
56718;SDS011;42597;40.636;0.278;2023-08-20T00:10:02;15.70;;;14.20;;
56718;SDS011;42597;40.636;0.278;2023-08-20T00:12:31;15.85;;;14.25;;
56718;SDS011;42597;40.636;0.278;2023-08-20T00:15:00;15.77;;;13.45;;
56718;SDS011;42597;40.636;0.278;2023-08-20T00:17:34;16.95;;;14.07;;
56718;SDS011;42597;40.636;0.278;2023-08-20T00:20:01;16.77;;;13.43;;
56718;SDS011;42597;40.636;0.278;2023-08-20T00:22:36;18.13;;;13.10;;
56718;SDS011;42597;40.636;0.278;2023-08-20T00:25:02;15.05;;;13.48;;
56718;SDS011;42597;40.636;0.278;2023-08-20T00:27:29;19.08;;;14.73;;
56718;SDS011;42597;40.636;0.278;2023-08-20T00:29:54;15.98;;;13.52;;
56718;SDS011;42597;40.636;0.278;2023-08-20T00:32:20;15.65;;;13.77;;
56718;SDS011;42597;40.636;0.278;2023-08-20T00:34:45;14.93;;;11.98;;
56718;SDS011;42597;40.636;0.278;2023-08-20T00:37:11;17.45;;;13.95;;
56718;SDS011;42597;40.636;0.278;2023-08-20T00:39:37;15.80;;;13.82;;
56718;SDS011;42597;40.636;0.278;2023-08-20T00:42:03;16.65;;;13.57;;
56718;SDS011;42597;40.636;0.278;2023-08-20T00:44:29;16.67;;;12.93;;
56718;SDS011;42597;40.636;0.278;2023-08-20T00:46:55;16.50;;;14.57;;
56718;SDS011;42597;40.636;0.278;2023-08-20T00:49:22;15.48;;;13.63;;
56718;SDS011;42597;40.636;0.278;2023-08-20T00:51:49;15.70;;;14.10;;
56718;SDS011;42597;40.636;0.278;2023-08-20T00:54:15;20.10;;;14.18;;
56718;SDS011;42597;40.636;0.278;2023-08-20T00:56:42;18.77;;;15.02;;
56718;SDS011;42597;40.636;0.278;2023-08-20T00:59:07;15.55;;;12.85;;
56718;SDS011;42597;40.636;0.278;2023-08-20T01:01:33;17.02;;;14.82;;
56718;SDS011;42597;40.636;0.278;2023-08-20T01:03:59;17.95;;;13.75;;
56718;SDS011;42597;40.636;0.278;2023-08-20T01:12:02;14.48;;;12.98;;
56718;SDS011;42597;40.636;0.278;2023-08-20T01:14:28;17.50;;;13.63;;
56718;SDS011;42597;40.636;0.278;2023-08-20T01:16:54;14.77;;;12.63;;
56718;SDS011;42597;40.636;0.278;2023-08-20T01:19:20;20.13;;;13.27;;
56718;SDS011;42597;40.636;0.278;2023-08-20T01:22:02;17.03;;;13.67;;
56718;SDS011;42597;40.636;0.278;2023-08-20T01:27:43;13.43;;;11.95;;
56718;SDS011;42597;40.636;0.278;2023-08-20T01:30:33;12.93;;;11.52;;
56718;SDS011;42597;40.636;0.278;2023-08-20T01:32:59;18.63;;;13.57;;
56718;SDS011;42597;40.636;0.278;2023-08-20T01:35:25;13.82;;;12.27;;
56718;SDS011;42597;40.636;0.278;2023-08-20T01:37:51;15.13;;;13.25;;
56718;SDS011;42597;40.636;0.278;2023-08-20T01:40:17;17.52;;;13.48;;
56718;SDS011;42597;40.636;0.278;2023-08-20T01:42:43;17.38;;;13.65;;
56718;SDS011;42597;40.636;0.278;2023-08-20T01:45:09;16.58;;;12.68;;
56718;SDS011;42597;40.636;0.278;2023-08-20T01:47:35;14.20;;;12.30;;
56718;SDS011;42597;40.636;0.278;2023-08-20T01:50:01;13.73;;;12.15;;
56718;SDS011;42597;40.636;0.278;2023-08-20T01:52:27;13.82;;;12.32;;
56718;SDS011;42597;40.636;0.278;2023-08-20T01:54:54;16.42;;;12.85;;
56718;SDS011;42597;40.636;0.278;2023-08-20T01:57:20;14.80;;;13.20;;
56718;SDS011;42597;40.636;0.278;2023-08-20T01:59:45;14.57;;;11.82;;
56718;SDS011;42597;40.636;0.278;2023-08-20T02:02:12;12.75;;;11.45;;
56718;SDS011;42597;40.636;0.278;2023-08-20T02:04:38;15.85;;;11.95;;
56718;SDS011;42597;40.636;0.278;2023-08-20T02:07:03;25.98;;;12.70;;
56718;SDS011;42597;40.636;0.278;2023-08-20T02:09:29;14.30;;;12.80;;
56718;SDS011;42597;40.636;0.278;2023-08-20T02:11:54;13.93;;;11.52;;
56718;SDS011;42597;40.636;0.278;2023-08-20T02:14:20;17.67;;;13.00;;
56718;SDS011;42597;40.636;0.278;2023-08-20T02:16:45;13.95;;;12.50;;
56718;SDS011;42597;40.636;0.278;2023-08-20T02:19:11;13.27;;;11.85;;
56718;SDS011;42597;40.636;0.278;2023-08-20T02:21:38;12.35;;;11.02;;
56718;SDS011;42597;40.636;0.278;2023-08-20T02:24:03;13.18;;;10.98;;
56718;SDS011;42597;40.636;0.278;2023-08-20T02:26:29;16.42;;;12.18;;
56718;SDS011;42597;40.636;0.278;2023-08-20T02:28:55;13.25;;;11.35;;
56718;SDS011;42597;40.636;0.278;2023-08-20T02:31:20;18.58;;;11.80;;
56718;SDS011;42597;40.636;0.278;2023-08-20T02:33:46;13.63;;;12.23;;
56718;SDS011;42597;40.636;0.278;2023-08-20T02:36:12;13.13;;;11.07;;
56718;SDS011;42597;40.636;0.278;2023-08-20T02:38:37;12.48;;;10.98;;
56718;SDS011;42597;40.636;0.278;2023-08-20T02:41:03;18.25;;;10.60;;
56718;SDS011;42597;40.636;0.278;2023-08-20T02:43:29;14.95;;;11.55;;
56718;SDS011;42597;40.636;0.278;2023-08-20T02:45:54;11.35;;;10.10;;
56718;SDS011;42597;40.636;0.278;2023-08-20T02:48:20;12.02;;;10.68;;
56718;SDS011;42597;40.636;0.278;2023-08-20T02:50:46;15.40;;;11.13;;
56718;SDS011;42597;40.636;0.278;2023-08-20T02:53:11;13.63;;;10.65;;
56718;SDS011;42597;40.636;0.278;2023-08-20T02:55:37;12.20;;;10.40;;
56718;SDS011;42597;40.636;0.278;2023-08-20T02:58:03;13.35;;;11.70;;
56718;SDS011;42597;40.636;0.278;2023-08-20T03:00:29;17.65;;;11.73;;
56718;SDS011;42597;40.636;0.278;2023-08-20T03:02:55;11.32;;;10.15;;
56718;SDS011;42597;40.636;0.278;2023-08-20T03:05:21;17.35;;;11.30;;
56718;SDS011;42597;40.636;0.278;2023-08-20T03:07:47;16.77;;;11.00;;
56718;SDS011;42597;40.636;0.278;2023-08-20T03:10:13;13.68;;;10.73;;
56718;SDS011;42597;40.636;0.278;2023-08-20T03:12:38;16.00;;;11.95;;
56718;SDS011;42597;40.636;0.278;2023-08-20T03:15:04;16.95;;;11.45;;
56718;SDS011;42597;40.636;0.278;2023-08-20T03:17:29;13.95;;;11.30;;
56718;SDS011;42597;40.636;0.278;2023-08-20T03:19:56;17.10;;;11.02;;
56718;SDS011;42597;40.636;0.278;2023-08-20T03:22:25;12.90;;;11.60;;
56718;SDS011;42597;40.636;0.278;2023-08-20T03:24:52;12.30;;;10.35;;
56718;SDS011;42597;40.636;0.278;2023-08-20T03:27:18;11.07;;;9.60;;
56718;SDS011;42597;40.636;0.278;2023-08-20T03:29:45;13.43;;;9.18;;
56718;SDS011;42597;40.636;0.278;2023-08-20T03:32:10;16.73;;;10.00;;
56718;SDS011;42597;40.636;0.278;2023-08-20T03:34:36;12.60;;;10.10;;
56718;SDS011;42597;40.636;0.278;2023-08-20T03:37:02;15.23;;;10.70;;
56718;SDS011;42597;40.636;0.278;2023-08-20T03:39:29;13.90;;;9.48;;
56718;SDS011;42597;40.636;0.278;2023-08-20T03:41:55;10.52;;;8.90;;
56718;SDS011;42597;40.636;0.278;2023-08-20T03:44:20;11.50;;;10.15;;
56718;SDS011;42597;40.636;0.278;2023-08-20T03:46:46;11.70;;;9.85;;
56718;SDS011;42597;40.636;0.278;2023-08-20T03:49:11;12.70;;;9.55;;
56718;SDS011;42597;40.636;0.278;2023-08-20T03:51:37;12.77;;;10.43;;
56718;SDS011;42597;40.636;0.278;2023-08-20T03:54:03;11.68;;;9.55;;
56718;SDS011;42597;40.636;0.278;2023-08-20T03:56:28;10.88;;;9.77;;
56718;SDS011;42597;40.636;0.278;2023-08-20T03:58:54;12.48;;;9.55;;
56718;SDS011;42597;40.636;0.278;2023-08-20T04:01:20;12.48;;;8.77;;
56718;SDS011;42597;40.636;0.278;2023-08-20T04:03:46;11.43;;;9.77;;
56718;SDS011;42597;40.636;0.278;2023-08-20T04:06:12;15.00;;;8.43;;
56718;SDS011;42597;40.636;0.278;2023-08-20T04:08:38;14.32;;;9.27;;
56718;SDS011;42597;40.636;0.278;2023-08-20T04:11:04;11.45;;;9.40;;
56718;SDS011;42597;40.636;0.278;2023-08-20T04:13:29;15.30;;;9.80;;
56718;SDS011;42597;40.636;0.278;2023-08-20T04:15:55;12.57;;;10.20;;
56718;SDS011;42597;40.636;0.278;2023-08-20T04:18:21;16.52;;;10.82;;
56718;SDS011;42597;40.636;0.278;2023-08-20T04:20:47;13.43;;;9.45;;
56718;SDS011;42597;40.636;0.278;2023-08-20T04:23:14;12.03;;;9.70;;
56718;SDS011;42597;40.636;0.278;2023-08-20T04:25:40;11.48;;;9.75;;
56718;SDS011;42597;40.636;0.278;2023-08-20T04:28:06;15.73;;;9.65;;
56718;SDS011;42597;40.636;0.278;2023-08-20T04:30:32;15.25;;;10.10;;
56718;SDS011;42597;40.636;0.278;2023-08-20T04:32:59;12.88;;;9.88;;
56718;SDS011;42597;40.636;0.278;2023-08-20T04:35:24;13.30;;;10.10;;
56718;SDS011;42597;40.636;0.278;2023-08-20T04:37:50;12.82;;;9.07;;
56718;SDS011;42597;40.636;0.278;2023-08-20T04:40:16;12.75;;;9.70;;
56718;SDS011;42597;40.636;0.278;2023-08-20T04:42:41;11.13;;;10.02;;
56718;SDS011;42597;40.636;0.278;2023-08-20T04:45:07;14.68;;;9.40;;
56718;SDS011;42597;40.636;0.278;2023-08-20T04:47:33;11.35;;;8.48;;
56718;SDS011;42597;40.636;0.278;2023-08-20T04:49:58;14.38;;;9.15;;
56718;SDS011;42597;40.636;0.278;2023-08-20T04:52:24;11.70;;;9.27;;
56718;SDS011;42597;40.636;0.278;2023-08-20T04:54:49;14.65;;;9.10;;
56718;SDS011;42597;40.636;0.278;2023-08-20T04:57:15;10.25;;;8.05;;
56718;SDS011;42597;40.636;0.278;2023-08-20T04:59:41;11.73;;;9.48;;
56718;SDS011;42597;40.636;0.278;2023-08-20T05:02:10;20.60;;;9.02;;
56718;SDS011;42597;40.636;0.278;2023-08-20T05:07:04;18.95;;;9.50;;
56718;SDS011;42597;40.636;0.278;2023-08-20T05:09:29;10.90;;;8.40;;
56718;SDS011;42597;40.636;0.278;2023-08-20T05:11:55;13.60;;;8.63;;
56718;SDS011;42597;40.636;0.278;2023-08-20T05:14:21;12.85;;;10.20;;
56718;SDS011;42597;40.636;0.278;2023-08-20T05:16:46;12.60;;;7.28;;
56718;SDS011;42597;40.636;0.278;2023-08-20T05:19:12;10.60;;;8.30;;
56718;SDS011;42597;40.636;0.278;2023-08-20T05:21:37;13.00;;;8.77;;
56718;SDS011;42597;40.636;0.278;2023-08-20T05:24:03;11.38;;;9.25;;
56718;SDS011;42597;40.636;0.278;2023-08-20T05:26:29;9.45;;;8.43;;
56718;SDS011;42597;40.636;0.278;2023-08-20T05:28:54;15.10;;;10.65;;
56718;SDS011;42597;40.636;0.278;2023-08-20T05:31:20;12.88;;;10.68;;
56718;SDS011;42597;40.636;0.278;2023-08-20T05:33:46;16.25;;;10.80;;
56718;SDS011;42597;40.636;0.278;2023-08-20T05:36:11;13.60;;;9.93;;
56718;SDS011;42597;40.636;0.278;2023-08-20T05:38:37;10.57;;;8.73;;
56718;SDS011;42597;40.636;0.278;2023-08-20T05:41:03;10.30;;;8.43;;
56718;SDS011;42597;40.636;0.278;2023-08-20T05:43:28;11.23;;;9.35;;
56718;SDS011;42597;40.636;0.278;2023-08-20T05:45:54;12.77;;;9.02;;
56718;SDS011;42597;40.636;0.278;2023-08-20T05:48:19;9.30;;;7.55;;
56718;SDS011;42597;40.636;0.278;2023-08-20T05:50:45;13.90;;;9.55;;
56718;SDS011;42597;40.636;0.278;2023-08-20T05:53:10;11.55;;;8.15;;
56718;SDS011;42597;40.636;0.278;2023-08-20T05:55:36;11.43;;;8.30;;
56718;SDS011;42597;40.636;0.278;2023-08-20T05:58:04;11.55;;;8.70;;
56718;SDS011;42597;40.636;0.278;2023-08-20T06:00:29;8.85;;;7.10;;
56718;SDS011;42597;40.636;0.278;2023-08-20T06:02:55;10.70;;;8.88;;
56718;SDS011;42597;40.636;0.278;2023-08-20T06:05:20;10.95;;;9.45;;
56718;SDS011;42597;40.636;0.278;2023-08-20T06:07:46;10.73;;;7.93;;
56718;SDS011;42597;40.636;0.278;2023-08-20T06:10:11;13.32;;;8.43;;
56718;SDS011;42597;40.636;0.278;2023-08-20T06:12:37;12.85;;;7.90;;
56718;SDS011;42597;40.636;0.278;2023-08-20T06:15:03;9.75;;;8.00;;
56718;SDS011;42597;40.636;0.278;2023-08-20T06:17:29;11.82;;;8.70;;
56718;SDS011;42597;40.636;0.278;2023-08-20T06:19:55;12.32;;;8.68;;
56718;SDS011;42597;40.636;0.278;2023-08-20T06:22:20;62.45;;;55.67;;
56718;SDS011;42597;40.636;0.278;2023-08-20T06:24:46;15.57;;;13.30;;
56718;SDS011;42597;40.636;0.278;2023-08-20T06:27:11;22.98;;;19.23;;
56718;SDS011;42597;40.636;0.278;2023-08-20T06:29:37;25.00;;;18.10;;
56718;SDS011;42597;40.636;0.278;2023-08-20T06:32:04;34.22;;;25.58;;
56718;SDS011;42597;40.636;0.278;2023-08-20T06:34:29;62.70;;;42.15;;
56718;SDS011;42597;40.636;0.278;2023-08-20T06:36:55;58.63;;;40.40;;
56718;SDS011;42597;40.636;0.278;2023-08-20T06:39:20;77.38;;;54.28;;
56718;SDS011;42597;40.636;0.278;2023-08-20T06:41:46;35.22;;;23.45;;
56718;SDS011;42597;40.636;0.278;2023-08-20T06:44:11;150.60;;;54.90;;
56718;SDS011;42597;40.636;0.278;2023-08-20T06:46:37;106.90;;;55.83;;
56718;SDS011;42597;40.636;0.278;2023-08-20T06:49:02;303.10;;;74.65;;
56718;SDS011;42597;40.636;0.278;2023-08-20T06:51:28;444.38;;;105.57;;
56718;SDS011;42597;40.636;0.278;2023-08-20T06:53:54;325.10;;;118.40;;
56718;SDS011;42597;40.636;0.278;2023-08-20T06:56:23;249.00;;;104.07;;
56718;SDS011;42597;40.636;0.278;2023-08-20T06:58:49;318.38;;;112.05;;
56718;SDS011;42597;40.636;0.278;2023-08-20T07:01:15;93.95;;;63.45;;
56718;SDS011;42597;40.636;0.278;2023-08-20T07:03:41;89.30;;;39.83;;
56718;SDS011;42597;40.636;0.278;2023-08-20T07:06:09;33.92;;;22.23;;
56718;SDS011;42597;40.636;0.278;2023-08-20T07:08:36;85.88;;;23.35;;
56718;SDS011;42597;40.636;0.278;2023-08-20T07:11:03;41.97;;;20.33;;
56718;SDS011;42597;40.636;0.278;2023-08-20T07:13:29;20.38;;;14.10;;
56718;SDS011;42597;40.636;0.278;2023-08-20T07:15:54;26.27;;;15.98;;
56718;SDS011;42597;40.636;0.278;2023-08-20T07:18:20;39.78;;;26.30;;
56718;SDS011;42597;40.636;0.278;2023-08-20T07:20:46;23.75;;;17.23;;
56718;SDS011;42597;40.636;0.278;2023-08-20T07:23:11;28.10;;;16.77;;
56718;SDS011;42597;40.636;0.278;2023-08-20T07:25:37;17.98;;;13.90;;
56718;SDS011;42597;40.636;0.278;2023-08-20T07:28:07;19.83;;;12.95;;
56718;SDS011;42597;40.636;0.278;2023-08-20T07:30:33;16.42;;;13.20;;
56718;SDS011;42597;40.636;0.278;2023-08-20T07:33:00;19.35;;;13.65;;
56718;SDS011;42597;40.636;0.278;2023-08-20T07:35:26;13.02;;;11.60;;
56718;SDS011;42597;40.636;0.278;2023-08-20T07:37:52;16.45;;;12.35;;
56718;SDS011;42597;40.636;0.278;2023-08-20T07:40:17;17.15;;;11.43;;
56718;SDS011;42597;40.636;0.278;2023-08-20T07:42:43;17.88;;;11.85;;
56718;SDS011;42597;40.636;0.278;2023-08-20T07:45:09;13.52;;;11.93;;
56718;SDS011;42597;40.636;0.278;2023-08-20T07:47:35;17.20;;;12.10;;
56718;SDS011;42597;40.636;0.278;2023-08-20T07:50:02;13.68;;;10.35;;
56718;SDS011;42597;40.636;0.278;2023-08-20T07:52:28;17.77;;;11.50;;
56718;SDS011;42597;40.636;0.278;2023-08-20T07:54:54;15.38;;;10.40;;
56718;SDS011;42597;40.636;0.278;2023-08-20T07:57:19;13.95;;;11.25;;
56718;SDS011;42597;40.636;0.278;2023-08-20T07:59:45;14.90;;;11.02;;
56718;SDS011;42597;40.636;0.278;2023-08-20T08:02:10;17.80;;;11.73;;
56718;SDS011;42597;40.636;0.278;2023-08-20T08:04:36;12.57;;;10.15;;
56718;SDS011;42597;40.636;0.278;2023-08-20T08:07:01;12.90;;;10.10;;
56718;SDS011;42597;40.636;0.278;2023-08-20T08:09:31;15.63;;;11.43;;
56718;SDS011;42597;40.636;0.278;2023-08-20T08:11:57;14.45;;;11.50;;
56718;SDS011;42597;40.636;0.278;2023-08-20T08:14:24;13.00;;;9.70;;
56718;SDS011;42597;40.636;0.278;2023-08-20T08:16:50;13.95;;;11.57;;
56718;SDS011;42597;40.636;0.278;2023-08-20T08:19:16;15.73;;;9.70;;
56718;SDS011;42597;40.636;0.278;2023-08-20T08:21:42;14.77;;;11.30;;
56718;SDS011;42597;40.636;0.278;2023-08-20T08:24:09;14.48;;;9.77;;
56718;SDS011;42597;40.636;0.278;2023-08-20T08:26:35;12.13;;;9.75;;
56718;SDS011;42597;40.636;0.278;2023-08-20T08:29:01;15.95;;;11.10;;
56718;SDS011;42597;40.636;0.278;2023-08-20T08:31:30;12.63;;;9.77;;
56718;SDS011;42597;40.636;0.278;2023-08-20T08:33:56;12.80;;;10.70;;
56718;SDS011;42597;40.636;0.278;2023-08-20T08:36:21;12.57;;;10.45;;
56718;SDS011;42597;40.636;0.278;2023-08-20T08:38:47;13.13;;;10.02;;
56718;SDS011;42597;40.636;0.278;2023-08-20T08:41:12;12.48;;;10.30;;
56718;SDS011;42597;40.636;0.278;2023-08-20T08:43:39;19.55;;;11.30;;
56718;SDS011;42597;40.636;0.278;2023-08-20T08:46:12;15.63;;;9.90;;
56718;SDS011;42597;40.636;0.278;2023-08-20T08:48:39;14.13;;;10.07;;
56718;SDS011;42597;40.636;0.278;2023-08-20T08:51:07;21.25;;;12.57;;
56718;SDS011;42597;40.636;0.278;2023-08-20T08:53:32;13.70;;;8.85;;
56718;SDS011;42597;40.636;0.278;2023-08-20T08:55:59;14.43;;;9.77;;
56718;SDS011;42597;40.636;0.278;2023-08-20T08:58:25;13.48;;;10.18;;
56718;SDS011;42597;40.636;0.278;2023-08-20T09:00:51;15.15;;;9.82;;
56718;SDS011;42597;40.636;0.278;2023-08-20T09:03:16;11.25;;;9.25;;
56718;SDS011;42597;40.636;0.278;2023-08-20T09:05:49;12.65;;;9.07;;
56718;SDS011;42597;40.636;0.278;2023-08-20T09:08:33;13.93;;;10.30;;
56718;SDS011;42597;40.636;0.278;2023-08-20T09:11:01;12.93;;;9.13;;
56718;SDS011;42597;40.636;0.278;2023-08-20T09:16:03;11.18;;;9.13;;
56718;SDS011;42597;40.636;0.278;2023-08-20T09:18:30;13.80;;;10.03;;
56718;SDS011;42597;40.636;0.278;2023-08-20T09:20:57;12.25;;;8.93;;
56718;SDS011;42597;40.636;0.278;2023-08-20T09:23:25;11.05;;;8.52;;
56718;SDS011;42597;40.636;0.278;2023-08-20T09:25:53;10.07;;;7.72;;
56718;SDS011;42597;40.636;0.278;2023-08-20T09:28:19;14.18;;;9.27;;
56718;SDS011;42597;40.636;0.278;2023-08-20T09:30:57;10.93;;;9.27;;
56718;SDS011;42597;40.636;0.278;2023-08-20T09:33:26;11.80;;;9.60;;
56718;SDS011;42597;40.636;0.278;2023-08-20T09:35:52;16.65;;;9.27;;
56718;SDS011;42597;40.636;0.278;2023-08-20T09:38:22;13.82;;;11.25;;
56718;SDS011;42597;40.636;0.278;2023-08-20T09:40:49;13.38;;;8.82;;
56718;SDS011;42597;40.636;0.278;2023-08-20T09:43:17;11.18;;;8.73;;
56718;SDS011;42597;40.636;0.278;2023-08-20T09:45:43;13.95;;;8.43;;
56718;SDS011;42597;40.636;0.278;2023-08-20T09:48:11;10.30;;;6.90;;
56718;SDS011;42597;40.636;0.278;2023-08-20T09:50:42;9.68;;;7.57;;
56718;SDS011;42597;40.636;0.278;2023-08-20T09:53:23;9.83;;;7.40;;
56718;SDS011;42597;40.636;0.278;2023-08-20T09:55:52;13.38;;;7.35;;
56718;SDS011;42597;40.636;0.278;2023-08-20T09:58:26;10.98;;;7.35;;
56718;SDS011;42597;40.636;0.278;2023-08-20T10:00:52;11.93;;;7.68;;
56718;SDS011;42597;40.636;0.278;2023-08-20T10:03:19;10.30;;;7.38;;
56718;SDS011;42597;40.636;0.278;2023-08-20T10:08:13;12.70;;;6.82;;
56718;SDS011;42597;40.636;0.278;2023-08-20T10:10:40;9.73;;;6.88;;
56718;SDS011;42597;40.636;0.278;2023-08-20T10:13:06;13.02;;;7.15;;
56718;SDS011;42597;40.636;0.278;2023-08-20T10:15:32;11.93;;;6.32;;
56718;SDS011;42597;40.636;0.278;2023-08-20T10:18:01;8.57;;;6.90;;
56718;SDS011;42597;40.636;0.278;2023-08-20T10:20:28;10.32;;;7.43;;
56718;SDS011;42597;40.636;0.278;2023-08-20T10:22:57;12.73;;;7.35;;
56718;SDS011;42597;40.636;0.278;2023-08-20T10:25:25;8.98;;;7.32;;
56718;SDS011;42597;40.636;0.278;2023-08-20T10:27:52;7.80;;;6.55;;
56718;SDS011;42597;40.636;0.278;2023-08-20T10:30:19;13.68;;;7.75;;
56718;SDS011;42597;40.636;0.278;2023-08-20T10:32:51;9.25;;;6.85;;
56718;SDS011;42597;40.636;0.278;2023-08-20T10:35:27;10.38;;;7.90;;
56718;SDS011;42597;40.636;0.278;2023-08-20T10:40:47;9.70;;;7.35;;
56718;SDS011;42597;40.636;0.278;2023-08-20T10:48:50;10.02;;;6.05;;
56718;SDS011;42597;40.636;0.278;2023-08-20T10:51:24;9.65;;;7.80;;
56718;SDS011;42597;40.636;0.278;2023-08-20T10:56:37;12.38;;;5.78;;
56718;SDS011;42597;40.636;0.278;2023-08-20T10:59:55;9.70;;;7.35;;
56718;SDS011;42597;40.636;0.278;2023-08-20T11:01:55;7.70;;;5.43;;
56718;SDS011;42597;40.636;0.278;2023-08-20T11:04:23;10.88;;;7.53;;
56718;SDS011;42597;40.636;0.278;2023-08-20T11:06:53;9.63;;;8.35;;
56718;SDS011;42597;40.636;0.278;2023-08-20T11:09:23;10.05;;;7.50;;
56718;SDS011;42597;40.636;0.278;2023-08-20T11:11:51;10.18;;;7.07;;
56718;SDS011;42597;40.636;0.278;2023-08-20T11:14:17;13.65;;;8.63;;
56718;SDS011;42597;40.636;0.278;2023-08-20T11:16:44;10.98;;;7.97;;
56718;SDS011;42597;40.636;0.278;2023-08-20T11:19:11;10.82;;;7.35;;
56718;SDS011;42597;40.636;0.278;2023-08-20T11:21:38;13.52;;;8.55;;
56718;SDS011;42597;40.636;0.278;2023-08-20T11:24:05;11.73;;;8.75;;
56718;SDS011;42597;40.636;0.278;2023-08-20T11:26:32;12.73;;;7.85;;
56718;SDS011;42597;40.636;0.278;2023-08-20T11:28:58;11.73;;;7.43;;
56718;SDS011;42597;40.636;0.278;2023-08-20T11:31:23;11.10;;;8.23;;
56718;SDS011;42597;40.636;0.278;2023-08-20T11:33:50;15.95;;;8.18;;
56718;SDS011;42597;40.636;0.278;2023-08-20T11:36:16;10.07;;;8.50;;
56718;SDS011;42597;40.636;0.278;2023-08-20T11:38:42;18.10;;;12.35;;
56718;SDS011;42597;40.636;0.278;2023-08-20T11:41:08;10.25;;;8.18;;
56718;SDS011;42597;40.636;0.278;2023-08-20T11:43:33;10.13;;;6.57;;
56718;SDS011;42597;40.636;0.278;2023-08-20T11:45:59;11.30;;;6.93;;
56718;SDS011;42597;40.636;0.278;2023-08-20T11:48:25;11.98;;;7.63;;
56718;SDS011;42597;40.636;0.278;2023-08-20T11:50:50;13.73;;;8.35;;
56718;SDS011;42597;40.636;0.278;2023-08-20T11:53:20;9.95;;;7.15;;
56718;SDS011;42597;40.636;0.278;2023-08-20T11:55:49;9.98;;;7.47;;
56718;SDS011;42597;40.636;0.278;2023-08-20T11:58:15;9.93;;;7.43;;
56718;SDS011;42597;40.636;0.278;2023-08-20T12:00:40;9.32;;;8.02;;
56718;SDS011;42597;40.636;0.278;2023-08-20T12:03:07;16.05;;;9.20;;
56718;SDS011;42597;40.636;0.278;2023-08-20T12:05:34;16.27;;;9.95;;
56718;SDS011;42597;40.636;0.278;2023-08-20T12:08:00;15.95;;;10.07;;
56718;SDS011;42597;40.636;0.278;2023-08-20T12:10:27;20.60;;;9.02;;
56718;SDS011;42597;40.636;0.278;2023-08-20T12:12:54;10.47;;;8.97;;
56718;SDS011;42597;40.636;0.278;2023-08-20T12:15:21;12.27;;;8.70;;
56718;SDS011;42597;40.636;0.278;2023-08-20T12:18:04;12.30;;;8.77;;
56718;SDS011;42597;40.636;0.278;2023-08-20T12:20:31;14.10;;;9.68;;
56718;SDS011;42597;40.636;0.278;2023-08-20T12:22:59;10.98;;;9.77;;
56718;SDS011;42597;40.636;0.278;2023-08-20T12:25:26;10.98;;;9.70;;
56718;SDS011;42597;40.636;0.278;2023-08-20T12:30:20;15.23;;;8.45;;
56718;SDS011;42597;40.636;0.278;2023-08-20T12:32:45;17.38;;;9.63;;
56718;SDS011;42597;40.636;0.278;2023-08-20T12:35:11;15.13;;;10.10;;
56718;SDS011;42597;40.636;0.278;2023-08-20T12:37:36;12.55;;;10.93;;
56718;SDS011;42597;40.636;0.278;2023-08-20T12:40:02;11.05;;;9.50;;
56718;SDS011;42597;40.636;0.278;2023-08-20T12:42:29;15.38;;;9.85;;
56718;SDS011;42597;40.636;0.278;2023-08-20T12:44:55;22.40;;;11.90;;
56718;SDS011;42597;40.636;0.278;2023-08-20T12:47:21;11.68;;;10.48;;
56718;SDS011;42597;40.636;0.278;2023-08-20T12:49:46;13.95;;;10.07;;
56718;SDS011;42597;40.636;0.278;2023-08-20T12:52:12;10.75;;;9.52;;
56718;SDS011;42597;40.636;0.278;2023-08-20T12:54:37;13.05;;;11.02;;
56718;SDS011;42597;40.636;0.278;2023-08-20T12:57:03;15.25;;;9.93;;
56718;SDS011;42597;40.636;0.278;2023-08-20T12:59:28;14.20;;;9.95;;
56718;SDS011;42597;40.636;0.278;2023-08-20T13:01:54;13.93;;;9.68;;
56718;SDS011;42597;40.636;0.278;2023-08-20T13:04:19;12.90;;;9.70;;
56718;SDS011;42597;40.636;0.278;2023-08-20T13:06:45;15.02;;;10.15;;
56718;SDS011;42597;40.636;0.278;2023-08-20T13:09:12;16.67;;;10.15;;
56718;SDS011;42597;40.636;0.278;2023-08-20T13:11:40;16.30;;;9.27;;
56718;SDS011;42597;40.636;0.278;2023-08-20T13:14:08;14.90;;;8.27;;
56718;SDS011;42597;40.636;0.278;2023-08-20T13:16:33;13.45;;;9.65;;
56718;SDS011;42597;40.636;0.278;2023-08-20T13:18:59;10.98;;;9.27;;
56718;SDS011;42597;40.636;0.278;2023-08-20T13:21:25;14.48;;;9.93;;
56718;SDS011;42597;40.636;0.278;2023-08-20T13:23:50;12.38;;;10.18;;
56718;SDS011;42597;40.636;0.278;2023-08-20T13:26:16;10.10;;;8.38;;
56718;SDS011;42597;40.636;0.278;2023-08-20T13:28:41;10.93;;;9.43;;
56718;SDS011;42597;40.636;0.278;2023-08-20T13:31:07;14.00;;;9.05;;
56718;SDS011;42597;40.636;0.278;2023-08-20T13:33:32;13.48;;;9.10;;
56718;SDS011;42597;40.636;0.278;2023-08-20T13:35:58;15.80;;;9.82;;
56718;SDS011;42597;40.636;0.278;2023-08-20T13:38:24;13.82;;;9.85;;
56718;SDS011;42597;40.636;0.278;2023-08-20T13:40:50;16.85;;;9.40;;
56718;SDS011;42597;40.636;0.278;2023-08-20T13:43:15;15.52;;;7.72;;
56718;SDS011;42597;40.636;0.278;2023-08-20T13:45:41;14.48;;;8.50;;
56718;SDS011;42597;40.636;0.278;2023-08-20T13:48:06;13.65;;;8.98;;
56718;SDS011;42597;40.636;0.278;2023-08-20T13:50:32;16.65;;;9.25;;
56718;SDS011;42597;40.636;0.278;2023-08-20T13:52:58;13.48;;;8.32;;
56718;SDS011;42597;40.636;0.278;2023-08-20T13:55:23;11.10;;;7.90;;
56718;SDS011;42597;40.636;0.278;2023-08-20T13:57:49;10.52;;;8.30;;
56718;SDS011;42597;40.636;0.278;2023-08-20T14:00:14;12.95;;;8.68;;
56718;SDS011;42597;40.636;0.278;2023-08-20T14:02:40;12.23;;;9.30;;
56718;SDS011;42597;40.636;0.278;2023-08-20T14:05:06;13.20;;;8.40;;
56718;SDS011;42597;40.636;0.278;2023-08-20T14:07:32;14.35;;;9.20;;
56718;SDS011;42597;40.636;0.278;2023-08-20T14:09:58;13.13;;;8.15;;
56718;SDS011;42597;40.636;0.278;2023-08-20T14:12:24;15.65;;;8.15;;
56718;SDS011;42597;40.636;0.278;2023-08-20T14:14:50;13.75;;;8.05;;
56718;SDS011;42597;40.636;0.278;2023-08-20T14:17:16;9.73;;;7.13;;
56718;SDS011;42597;40.636;0.278;2023-08-20T14:19:42;16.90;;;7.43;;
56718;SDS011;42597;40.636;0.278;2023-08-20T14:22:07;9.60;;;8.23;;
56718;SDS011;42597;40.636;0.278;2023-08-20T14:24:33;10.77;;;7.55;;
56718;SDS011;42597;40.636;0.278;2023-08-20T14:26:58;9.25;;;8.20;;
56718;SDS011;42597;40.636;0.278;2023-08-20T14:29:24;12.02;;;7.75;;
56718;SDS011;42597;40.636;0.278;2023-08-20T14:31:49;10.50;;;8.35;;
56718;SDS011;42597;40.636;0.278;2023-08-20T14:34:15;12.40;;;7.90;;
56718;SDS011;42597;40.636;0.278;2023-08-20T14:36:40;12.43;;;7.25;;
56718;SDS011;42597;40.636;0.278;2023-08-20T14:39:06;11.18;;;7.07;;
56718;SDS011;42597;40.636;0.278;2023-08-20T14:41:32;11.70;;;8.13;;
56718;SDS011;42597;40.636;0.278;2023-08-20T14:43:57;12.38;;;7.47;;
56718;SDS011;42597;40.636;0.278;2023-08-20T14:46:23;10.15;;;7.07;;
56718;SDS011;42597;40.636;0.278;2023-08-20T14:48:49;8.77;;;6.40;;
56718;SDS011;42597;40.636;0.278;2023-08-20T14:51:14;12.50;;;7.65;;
56718;SDS011;42597;40.636;0.278;2023-08-20T14:53:40;12.80;;;7.53;;